sensor_id;sensor_type;location;lat;lon;timestamp;P1;durP1;ratioP1;P2;durP2;ratioP2
74528;SDS011;63009;52.584;5.932;2023-06-14T00:01:00;8.43;;;2.90;;
74528;SDS011;63009;52.584;5.932;2023-06-14T00:03:28;9.82;;;3.90;;
74528;SDS011;63009;52.584;5.932;2023-06-14T00:05:54;7.45;;;2.70;;
74528;SDS011;63009;52.584;5.932;2023-06-14T00:08:19;8.48;;;2.72;;
74528;SDS011;63009;52.584;5.932;2023-06-14T00:10:46;8.02;;;3.55;;
74528;SDS011;63009;52.584;5.932;2023-06-14T00:13:11;7.18;;;2.42;;
74528;SDS011;63009;52.584;5.932;2023-06-14T00:15:37;8.60;;;2.63;;
74528;SDS011;63009;52.584;5.932;2023-06-14T00:18:03;10.20;;;2.70;;
74528;SDS011;63009;52.584;5.932;2023-06-14T00:20:30;8.27;;;2.63;;
74528;SDS011;63009;52.584;5.932;2023-06-14T00:22:57;9.13;;;3.65;;
74528;SDS011;63009;52.584;5.932;2023-06-14T00:25:23;9.05;;;2.92;;
74528;SDS011;63009;52.584;5.932;2023-06-14T00:27:52;7.28;;;2.38;;
74528;SDS011;63009;52.584;5.932;2023-06-14T00:30:17;7.45;;;2.38;;
74528;SDS011;63009;52.584;5.932;2023-06-14T00:32:43;8.75;;;2.80;;
74528;SDS011;63009;52.584;5.932;2023-06-14T00:35:09;10.13;;;2.70;;
74528;SDS011;63009;52.584;5.932;2023-06-14T00:37:35;9.23;;;3.03;;
74528;SDS011;63009;52.584;5.932;2023-06-14T00:40:01;8.10;;;2.42;;
74528;SDS011;63009;52.584;5.932;2023-06-14T00:42:27;9.50;;;3.00;;
74528;SDS011;63009;52.584;5.932;2023-06-14T00:44:53;7.95;;;2.60;;
74528;SDS011;63009;52.584;5.932;2023-06-14T00:47:19;7.32;;;2.40;;
74528;SDS011;63009;52.584;5.932;2023-06-14T00:49:48;8.40;;;2.80;;
74528;SDS011;63009;52.584;5.932;2023-06-14T00:52:15;7.82;;;2.58;;
74528;SDS011;63009;52.584;5.932;2023-06-14T00:54:43;9.23;;;2.70;;
74528;SDS011;63009;52.584;5.932;2023-06-14T00:57:09;9.38;;;2.83;;
74528;SDS011;63009;52.584;5.932;2023-06-14T00:59:37;7.32;;;2.60;;
74528;SDS011;63009;52.584;5.932;2023-06-14T01:02:09;17.33;;;3.17;;
74528;SDS011;63009;52.584;5.932;2023-06-14T01:04:34;8.27;;;3.30;;
74528;SDS011;63009;52.584;5.932;2023-06-14T01:07:02;9.03;;;2.90;;
74528;SDS011;63009;52.584;5.932;2023-06-14T01:12:44;8.77;;;3.08;;
74528;SDS011;63009;52.584;5.932;2023-06-14T01:15:21;9.88;;;2.75;;
74528;SDS011;63009;52.584;5.932;2023-06-14T01:17:48;8.60;;;2.90;;
74528;SDS011;63009;52.584;5.932;2023-06-14T01:20:16;9.38;;;2.90;;
74528;SDS011;63009;52.584;5.932;2023-06-14T01:22:50;8.60;;;2.97;;
74528;SDS011;63009;52.584;5.932;2023-06-14T01:25:17;8.73;;;2.90;;
74528;SDS011;63009;52.584;5.932;2023-06-14T01:30:11;7.57;;;2.40;;
74528;SDS011;63009;52.584;5.932;2023-06-14T01:32:37;9.82;;;3.00;;
74528;SDS011;63009;52.584;5.932;2023-06-14T01:35:03;13.53;;;2.93;;
74528;SDS011;63009;52.584;5.932;2023-06-14T01:37:28;7.18;;;2.50;;
74528;SDS011;63009;52.584;5.932;2023-06-14T01:39:55;7.95;;;3.00;;
74528;SDS011;63009;52.584;5.932;2023-06-14T01:42:21;8.68;;;2.50;;
74528;SDS011;63009;52.584;5.932;2023-06-14T01:44:47;10.10;;;2.95;;
74528;SDS011;63009;52.584;5.932;2023-06-14T01:47:14;10.60;;;2.83;;
74528;SDS011;63009;52.584;5.932;2023-06-14T01:49:39;6.88;;;2.95;;
74528;SDS011;63009;52.584;5.932;2023-06-14T01:52:05;9.00;;;3.28;;
74528;SDS011;63009;52.584;5.932;2023-06-14T01:54:31;8.02;;;2.85;;
74528;SDS011;63009;52.584;5.932;2023-06-14T01:56:56;10.37;;;2.73;;
74528;SDS011;63009;52.584;5.932;2023-06-14T01:59:22;8.65;;;3.03;;
74528;SDS011;63009;52.584;5.932;2023-06-14T02:01:47;7.43;;;2.70;;
74528;SDS011;63009;52.584;5.932;2023-06-14T02:04:12;11.00;;;2.90;;
74528;SDS011;63009;52.584;5.932;2023-06-14T02:06:37;8.32;;;2.75;;
74528;SDS011;63009;52.584;5.932;2023-06-14T02:09:03;8.60;;;3.20;;
74528;SDS011;63009;52.584;5.932;2023-06-14T02:11:28;8.57;;;3.05;;
74528;SDS011;63009;52.584;5.932;2023-06-14T02:13:54;8.05;;;2.58;;
74528;SDS011;63009;52.584;5.932;2023-06-14T02:16:20;8.23;;;2.60;;
74528;SDS011;63009;52.584;5.932;2023-06-14T02:18:45;9.98;;;3.00;;
74528;SDS011;63009;52.584;5.932;2023-06-14T02:21:11;10.25;;;2.80;;
74528;SDS011;63009;52.584;5.932;2023-06-14T02:23:36;8.63;;;3.27;;
74528;SDS011;63009;52.584;5.932;2023-06-14T02:26:01;8.23;;;2.90;;
74528;SDS011;63009;52.584;5.932;2023-06-14T02:28:27;7.45;;;2.78;;
74528;SDS011;63009;52.584;5.932;2023-06-14T02:30:53;10.77;;;2.80;;
74528;SDS011;63009;52.584;5.932;2023-06-14T02:33:18;7.10;;;2.50;;
74528;SDS011;63009;52.584;5.932;2023-06-14T02:35:43;9.67;;;2.93;;
74528;SDS011;63009;52.584;5.932;2023-06-14T02:38:08;8.93;;;3.00;;
74528;SDS011;63009;52.584;5.932;2023-06-14T02:40:34;9.40;;;3.13;;
74528;SDS011;63009;52.584;5.932;2023-06-14T02:42:59;9.57;;;2.70;;
74528;SDS011;63009;52.584;5.932;2023-06-14T02:45:24;8.13;;;3.22;;
74528;SDS011;63009;52.584;5.932;2023-06-14T02:47:50;9.53;;;2.90;;
74528;SDS011;63009;52.584;5.932;2023-06-14T02:50:16;10.63;;;2.88;;
74528;SDS011;63009;52.584;5.932;2023-06-14T02:52:41;11.00;;;3.10;;
74528;SDS011;63009;52.584;5.932;2023-06-14T02:55:07;6.87;;;2.70;;
74528;SDS011;63009;52.584;5.932;2023-06-14T02:57:33;9.18;;;2.60;;
74528;SDS011;63009;52.584;5.932;2023-06-14T02:59:58;8.53;;;2.77;;
74528;SDS011;63009;52.584;5.932;2023-06-14T03:02:23;7.73;;;2.70;;
74528;SDS011;63009;52.584;5.932;2023-06-14T03:04:48;8.97;;;2.70;;
74528;SDS011;63009;52.584;5.932;2023-06-14T03:07:14;8.27;;;2.30;;
74528;SDS011;63009;52.584;5.932;2023-06-14T03:09:44;8.57;;;2.60;;
74528;SDS011;63009;52.584;5.932;2023-06-14T03:12:10;7.97;;;2.60;;
74528;SDS011;63009;52.584;5.932;2023-06-14T03:14:36;8.48;;;2.63;;
74528;SDS011;63009;52.584;5.932;2023-06-14T03:17:04;10.07;;;2.90;;
74528;SDS011;63009;52.584;5.932;2023-06-14T03:19:30;11.32;;;3.08;;
74528;SDS011;63009;52.584;5.932;2023-06-14T03:21:55;12.38;;;3.10;;
74528;SDS011;63009;52.584;5.932;2023-06-14T03:24:24;9.30;;;2.88;;
74528;SDS011;63009;52.584;5.932;2023-06-14T03:26:52;9.05;;;3.30;;
74528;SDS011;63009;52.584;5.932;2023-06-14T03:29:17;9.43;;;3.07;;
74528;SDS011;63009;52.584;5.932;2023-06-14T03:31:56;8.30;;;3.23;;
74528;SDS011;63009;52.584;5.932;2023-06-14T03:34:25;10.05;;;3.25;;
74528;SDS011;63009;52.584;5.932;2023-06-14T03:36:51;8.13;;;2.95;;
74528;SDS011;63009;52.584;5.932;2023-06-14T03:39:16;9.27;;;3.55;;
74528;SDS011;63009;52.584;5.932;2023-06-14T03:41:42;9.57;;;3.27;;
74528;SDS011;63009;52.584;5.932;2023-06-14T03:44:07;9.43;;;3.03;;
74528;SDS011;63009;52.584;5.932;2023-06-14T03:46:32;7.90;;;2.63;;
74528;SDS011;63009;52.584;5.932;2023-06-14T03:48:57;8.48;;;3.13;;
74528;SDS011;63009;52.584;5.932;2023-06-14T03:51:23;8.60;;;3.00;;
74528;SDS011;63009;52.584;5.932;2023-06-14T03:53:50;8.10;;;2.90;;
74528;SDS011;63009;52.584;5.932;2023-06-14T03:56:15;8.15;;;2.80;;
74528;SDS011;63009;52.584;5.932;2023-06-14T03:58:40;6.77;;;2.50;;
74528;SDS011;63009;52.584;5.932;2023-06-14T04:01:06;8.50;;;2.93;;
74528;SDS011;63009;52.584;5.932;2023-06-14T04:03:31;8.00;;;2.60;;
74528;SDS011;63009;52.584;5.932;2023-06-14T04:05:58;8.15;;;3.08;;
74528;SDS011;63009;52.584;5.932;2023-06-14T04:08:24;8.07;;;3.13;;
74528;SDS011;63009;52.584;5.932;2023-06-14T04:10:50;8.45;;;3.33;;
74528;SDS011;63009;52.584;5.932;2023-06-14T04:13:15;8.20;;;2.90;;
74528;SDS011;63009;52.584;5.932;2023-06-14T04:15:40;10.90;;;2.97;;
74528;SDS011;63009;52.584;5.932;2023-06-14T04:18:07;8.45;;;2.83;;
74528;SDS011;63009;52.584;5.932;2023-06-14T04:20:33;11.75;;;3.08;;
74528;SDS011;63009;52.584;5.932;2023-06-14T04:23:10;8.30;;;2.88;;
74528;SDS011;63009;52.584;5.932;2023-06-14T04:25:37;8.25;;;2.72;;
74528;SDS011;63009;52.584;5.932;2023-06-14T04:28:02;6.80;;;2.50;;
74528;SDS011;63009;52.584;5.932;2023-06-14T04:30:28;8.77;;;2.90;;
74528;SDS011;63009;52.584;5.932;2023-06-14T04:32:56;10.88;;;3.17;;
74528;SDS011;63009;52.584;5.932;2023-06-14T04:35:22;7.47;;;2.78;;
74528;SDS011;63009;52.584;5.932;2023-06-14T04:37:49;8.10;;;2.95;;
74528;SDS011;63009;52.584;5.932;2023-06-14T04:40:14;8.23;;;3.00;;
74528;SDS011;63009;52.584;5.932;2023-06-14T04:42:40;7.18;;;3.03;;
74528;SDS011;63009;52.584;5.932;2023-06-14T04:45:05;6.93;;;2.53;;
74528;SDS011;63009;52.584;5.932;2023-06-14T04:47:32;9.57;;;2.88;;
74528;SDS011;63009;52.584;5.932;2023-06-14T04:49:59;11.15;;;3.08;;
74528;SDS011;63009;52.584;5.932;2023-06-14T04:52:25;13.13;;;3.10;;
74528;SDS011;63009;52.584;5.932;2023-06-14T04:54:51;7.75;;;2.53;;
74528;SDS011;63009;52.584;5.932;2023-06-14T04:57:19;10.40;;;3.30;;
74528;SDS011;63009;52.584;5.932;2023-06-14T04:59:47;9.48;;;3.30;;
74528;SDS011;63009;52.584;5.932;2023-06-14T05:02:13;8.35;;;3.58;;
74528;SDS011;63009;52.584;5.932;2023-06-14T05:04:39;7.22;;;2.97;;
74528;SDS011;63009;52.584;5.932;2023-06-14T05:07:06;7.80;;;2.88;;
74528;SDS011;63009;52.584;5.932;2023-06-14T05:09:33;9.60;;;3.08;;
74528;SDS011;63009;52.584;5.932;2023-06-14T05:11:58;8.40;;;3.28;;
74528;SDS011;63009;52.584;5.932;2023-06-14T05:14:25;8.82;;;3.05;;
74528;SDS011;63009;52.584;5.932;2023-06-14T05:16:50;13.55;;;3.42;;
74528;SDS011;63009;52.584;5.932;2023-06-14T05:19:16;8.35;;;3.30;;
74528;SDS011;63009;52.584;5.932;2023-06-14T05:21:43;9.80;;;3.42;;
74528;SDS011;63009;52.584;5.932;2023-06-14T05:24:08;11.07;;;3.40;;
74528;SDS011;63009;52.584;5.932;2023-06-14T05:26:34;9.80;;;3.13;;
74528;SDS011;63009;52.584;5.932;2023-06-14T05:29:00;8.18;;;3.08;;
74528;SDS011;63009;52.584;5.932;2023-06-14T05:31:26;7.40;;;2.92;;
74528;SDS011;63009;52.584;5.932;2023-06-14T05:33:53;8.90;;;3.45;;
74528;SDS011;63009;52.584;5.932;2023-06-14T05:36:19;9.23;;;3.63;;
74528;SDS011;63009;52.584;5.932;2023-06-14T05:38:46;8.25;;;3.35;;
74528;SDS011;63009;52.584;5.932;2023-06-14T05:41:11;9.70;;;3.23;;
74528;SDS011;63009;52.584;5.932;2023-06-14T05:43:36;9.35;;;3.22;;
74528;SDS011;63009;52.584;5.932;2023-06-14T05:46:02;9.87;;;3.57;;
74528;SDS011;63009;52.584;5.932;2023-06-14T05:48:28;10.90;;;3.37;;
74528;SDS011;63009;52.584;5.932;2023-06-14T05:50:54;8.23;;;3.53;;
74528;SDS011;63009;52.584;5.932;2023-06-14T05:53:19;11.52;;;3.67;;
74528;SDS011;63009;52.584;5.932;2023-06-14T05:55:44;8.17;;;3.20;;
74528;SDS011;63009;52.584;5.932;2023-06-14T05:58:09;8.43;;;2.90;;
74528;SDS011;63009;52.584;5.932;2023-06-14T06:00:35;11.77;;;3.60;;
74528;SDS011;63009;52.584;5.932;2023-06-14T06:03:01;8.90;;;2.92;;
74528;SDS011;63009;52.584;5.932;2023-06-14T06:05:26;8.87;;;3.50;;
74528;SDS011;63009;52.584;5.932;2023-06-14T06:07:51;8.85;;;3.20;;
74528;SDS011;63009;52.584;5.932;2023-06-14T06:10:17;8.55;;;3.20;;
74528;SDS011;63009;52.584;5.932;2023-06-14T06:12:42;9.50;;;3.47;;
74528;SDS011;63009;52.584;5.932;2023-06-14T06:15:07;9.18;;;3.22;;
74528;SDS011;63009;52.584;5.932;2023-06-14T06:17:37;9.43;;;2.95;;
74528;SDS011;63009;52.584;5.932;2023-06-14T06:20:02;9.55;;;3.30;;
74528;SDS011;63009;52.584;5.932;2023-06-14T06:22:28;11.30;;;3.72;;
74528;SDS011;63009;52.584;5.932;2023-06-14T06:24:53;13.77;;;3.23;;
74528;SDS011;63009;52.584;5.932;2023-06-14T06:27:18;8.37;;;3.30;;
74528;SDS011;63009;52.584;5.932;2023-06-14T06:29:44;8.50;;;3.40;;
74528;SDS011;63009;52.584;5.932;2023-06-14T06:32:09;7.53;;;3.00;;
74528;SDS011;63009;52.584;5.932;2023-06-14T06:34:35;9.05;;;3.28;;
74528;SDS011;63009;52.584;5.932;2023-06-14T06:37:00;8.18;;;3.00;;
74528;SDS011;63009;52.584;5.932;2023-06-14T06:39:26;7.50;;;3.30;;
74528;SDS011;63009;52.584;5.932;2023-06-14T06:41:51;9.07;;;2.75;;
74528;SDS011;63009;52.584;5.932;2023-06-14T06:44:16;10.47;;;3.10;;
74528;SDS011;63009;52.584;5.932;2023-06-14T06:46:43;12.97;;;3.37;;
74528;SDS011;63009;52.584;5.932;2023-06-14T06:49:08;12.07;;;3.05;;
74528;SDS011;63009;52.584;5.932;2023-06-14T06:51:34;7.95;;;2.78;;
74528;SDS011;63009;52.584;5.932;2023-06-14T06:54:01;12.07;;;2.72;;
74528;SDS011;63009;52.584;5.932;2023-06-14T06:56:27;8.82;;;2.78;;
74528;SDS011;63009;52.584;5.932;2023-06-14T06:58:52;10.60;;;2.85;;
74528;SDS011;63009;52.584;5.932;2023-06-14T07:01:18;8.20;;;2.60;;
74528;SDS011;63009;52.584;5.932;2023-06-14T07:03:44;8.20;;;2.60;;
74528;SDS011;63009;52.584;5.932;2023-06-14T07:06:10;7.18;;;2.33;;
74528;SDS011;63009;52.584;5.932;2023-06-14T07:08:35;7.20;;;2.90;;
74528;SDS011;63009;52.584;5.932;2023-06-14T07:11:03;7.78;;;2.35;;
74528;SDS011;63009;52.584;5.932;2023-06-14T07:13:29;6.57;;;2.20;;
74528;SDS011;63009;52.584;5.932;2023-06-14T07:15:56;11.13;;;2.50;;
74528;SDS011;63009;52.584;5.932;2023-06-14T07:18:23;7.40;;;2.60;;
74528;SDS011;63009;52.584;5.932;2023-06-14T07:20:49;8.97;;;2.70;;
74528;SDS011;63009;52.584;5.932;2023-06-14T07:23:15;7.40;;;2.47;;
74528;SDS011;63009;52.584;5.932;2023-06-14T07:25:40;9.82;;;2.72;;
74528;SDS011;63009;52.584;5.932;2023-06-14T07:28:05;14.57;;;2.60;;
74528;SDS011;63009;52.584;5.932;2023-06-14T07:30:31;11.02;;;2.55;;
74528;SDS011;63009;52.584;5.932;2023-06-14T07:32:56;6.50;;;2.37;;
74528;SDS011;63009;52.584;5.932;2023-06-14T07:35:22;8.45;;;2.15;;
74528;SDS011;63009;52.584;5.932;2023-06-14T07:37:47;9.60;;;2.60;;
74528;SDS011;63009;52.584;5.932;2023-06-14T07:40:13;7.90;;;2.20;;
74528;SDS011;63009;52.584;5.932;2023-06-14T07:42:38;6.18;;;2.33;;
74528;SDS011;63009;52.584;5.932;2023-06-14T07:45:04;6.95;;;2.40;;
74528;SDS011;63009;52.584;5.932;2023-06-14T07:47:30;8.15;;;2.50;;
74528;SDS011;63009;52.584;5.932;2023-06-14T07:49:56;6.40;;;2.30;;
74528;SDS011;63009;52.584;5.932;2023-06-14T07:52:21;7.38;;;2.30;;
74528;SDS011;63009;52.584;5.932;2023-06-14T07:54:47;6.63;;;2.40;;
74528;SDS011;63009;52.584;5.932;2023-06-14T07:57:12;8.48;;;2.50;;
74528;SDS011;63009;52.584;5.932;2023-06-14T07:59:37;7.13;;;2.60;;
74528;SDS011;63009;52.584;5.932;2023-06-14T08:02:03;9.23;;;2.77;;
74528;SDS011;63009;52.584;5.932;2023-06-14T08:04:29;10.73;;;2.53;;
74528;SDS011;63009;52.584;5.932;2023-06-14T08:06:54;7.97;;;2.20;;
74528;SDS011;63009;52.584;5.932;2023-06-14T08:09:19;9.43;;;2.47;;
74528;SDS011;63009;52.584;5.932;2023-06-14T08:11:45;6.38;;;2.47;;
74528;SDS011;63009;52.584;5.932;2023-06-14T08:14:10;6.70;;;2.60;;
74528;SDS011;63009;52.584;5.932;2023-06-14T08:16:36;8.02;;;2.40;;
74528;SDS011;63009;52.584;5.932;2023-06-14T08:19:01;8.87;;;2.50;;
74528;SDS011;63009;52.584;5.932;2023-06-14T08:21:26;7.70;;;2.27;;
74528;SDS011;63009;52.584;5.932;2023-06-14T08:23:54;7.47;;;2.20;;
74528;SDS011;63009;52.584;5.932;2023-06-14T08:26:19;5.80;;;2.08;;
74528;SDS011;63009;52.584;5.932;2023-06-14T08:28:45;8.13;;;2.25;;
74528;SDS011;63009;52.584;5.932;2023-06-14T08:31:11;8.13;;;2.60;;
74528;SDS011;63009;52.584;5.932;2023-06-14T08:33:36;7.03;;;2.30;;
74528;SDS011;63009;52.584;5.932;2023-06-14T08:36:01;7.97;;;2.43;;
74528;SDS011;63009;52.584;5.932;2023-06-14T08:38:27;8.67;;;2.27;;
74528;SDS011;63009;52.584;5.932;2023-06-14T08:40:52;5.72;;;1.85;;
74528;SDS011;63009;52.584;5.932;2023-06-14T08:43:22;7.55;;;2.33;;
74528;SDS011;63009;52.584;5.932;2023-06-14T08:45:47;7.73;;;2.20;;
74528;SDS011;63009;52.584;5.932;2023-06-14T08:48:14;7.72;;;2.25;;
74528;SDS011;63009;52.584;5.932;2023-06-14T08:50:42;5.88;;;2.00;;
74528;SDS011;63009;52.584;5.932;2023-06-14T08:53:08;6.43;;;2.03;;
74528;SDS011;63009;52.584;5.932;2023-06-14T08:55:41;7.20;;;2.03;;
74528;SDS011;63009;52.584;5.932;2023-06-14T08:58:08;9.90;;;2.30;;
74528;SDS011;63009;52.584;5.932;2023-06-14T09:00:34;6.25;;;2.28;;
74528;SDS011;63009;52.584;5.932;2023-06-14T09:03:02;7.55;;;2.05;;
74528;SDS011;63009;52.584;5.932;2023-06-14T09:05:28;6.93;;;2.33;;
74528;SDS011;63009;52.584;5.932;2023-06-14T09:07:54;6.70;;;2.08;;
74528;SDS011;63009;52.584;5.932;2023-06-14T09:10:25;7.30;;;2.00;;
74528;SDS011;63009;52.584;5.932;2023-06-14T09:12:52;11.35;;;2.60;;
74528;SDS011;63009;52.584;5.932;2023-06-14T09:15:17;5.97;;;2.00;;
74528;SDS011;63009;52.584;5.932;2023-06-14T09:17:43;6.97;;;2.10;;
74528;SDS011;63009;52.584;5.932;2023-06-14T09:20:08;13.80;;;2.28;;
74528;SDS011;63009;52.584;5.932;2023-06-14T09:22:35;7.95;;;1.70;;
74528;SDS011;63009;52.584;5.932;2023-06-14T09:25:00;8.45;;;1.85;;
74528;SDS011;63009;52.584;5.932;2023-06-14T09:27:26;6.45;;;1.80;;
74528;SDS011;63009;52.584;5.932;2023-06-14T09:29:52;5.88;;;2.00;;
74528;SDS011;63009;52.584;5.932;2023-06-14T09:32:18;7.20;;;2.10;;
74528;SDS011;63009;52.584;5.932;2023-06-14T09:34:43;6.15;;;1.95;;
74528;SDS011;63009;52.584;5.932;2023-06-14T09:37:10;6.05;;;1.80;;
74528;SDS011;63009;52.584;5.932;2023-06-14T09:39:35;9.80;;;2.17;;
74528;SDS011;63009;52.584;5.932;2023-06-14T09:42:00;8.97;;;2.10;;
74528;SDS011;63009;52.584;5.932;2023-06-14T09:44:42;4.78;;;1.70;;
74528;SDS011;63009;52.584;5.932;2023-06-14T09:47:08;5.05;;;1.70;;
74528;SDS011;63009;52.584;5.932;2023-06-14T09:49:33;5.35;;;1.70;;
74528;SDS011;63009;52.584;5.932;2023-06-14T09:51:59;6.73;;;2.00;;
74528;SDS011;63009;52.584;5.932;2023-06-14T09:54:24;6.97;;;2.15;;
74528;SDS011;63009;52.584;5.932;2023-06-14T09:59:22;6.65;;;1.95;;
74528;SDS011;63009;52.584;5.932;2023-06-14T10:01:57;7.00;;;1.95;;
74528;SDS011;63009;52.584;5.932;2023-06-14T10:04:24;4.93;;;1.80;;
74528;SDS011;63009;52.584;5.932;2023-06-14T10:06:50;5.88;;;1.77;;
74528;SDS011;63009;52.584;5.932;2023-06-14T10:09:17;7.00;;;1.80;;
74528;SDS011;63009;52.584;5.932;2023-06-14T10:11:42;6.18;;;1.83;;
74528;SDS011;63009;52.584;5.932;2023-06-14T10:14:11;7.47;;;1.77;;
74528;SDS011;63009;52.584;5.932;2023-06-14T10:16:42;6.10;;;1.70;;
74528;SDS011;63009;52.584;5.932;2023-06-14T10:19:22;7.40;;;1.90;;
74528;SDS011;63009;52.584;5.932;2023-06-14T10:21:59;5.97;;;2.20;;
74528;SDS011;63009;52.584;5.932;2023-06-14T10:24:31;8.93;;;2.00;;
74528;SDS011;63009;52.584;5.932;2023-06-14T10:26:58;10.20;;;2.00;;
74528;SDS011;63009;52.584;5.932;2023-06-14T10:29:27;5.82;;;2.08;;
74528;SDS011;63009;52.584;5.932;2023-06-14T10:31:57;5.53;;;1.80;;
74528;SDS011;63009;52.584;5.932;2023-06-14T10:34:30;6.88;;;1.80;;
74528;SDS011;63009;52.584;5.932;2023-06-14T10:37:03;5.03;;;1.55;;
74528;SDS011;63009;52.584;5.932;2023-06-14T10:39:30;6.07;;;1.55;;
74528;SDS011;63009;52.584;5.932;2023-06-14T10:41:56;6.00;;;2.15;;
74528;SDS011;63009;52.584;5.932;2023-06-14T10:46:48;5.30;;;1.73;;
74528;SDS011;63009;52.584;5.932;2023-06-14T10:49:17;5.63;;;1.70;;
74528;SDS011;63009;52.584;5.932;2023-06-14T10:52:06;7.43;;;1.50;;
74528;SDS011;63009;52.584;5.932;2023-06-14T10:54:36;5.53;;;1.65;;
74528;SDS011;63009;52.584;5.932;2023-06-14T10:57:02;7.68;;;1.83;;
74528;SDS011;63009;52.584;5.932;2023-06-14T10:59:32;9.10;;;1.75;;
74528;SDS011;63009;52.584;5.932;2023-06-14T11:05:05;5.10;;;1.50;;
74528;SDS011;63009;52.584;5.932;2023-06-14T11:10:40;6.18;;;1.65;;
74528;SDS011;63009;52.584;5.932;2023-06-14T11:13:08;7.25;;;1.90;;
74528;SDS011;63009;52.584;5.932;2023-06-14T11:15:34;5.15;;;1.70;;
74528;SDS011;63009;52.584;5.932;2023-06-14T11:18:04;6.60;;;1.50;;
74528;SDS011;63009;52.584;5.932;2023-06-14T11:20:31;5.65;;;1.77;;
74528;SDS011;63009;52.584;5.932;2023-06-14T11:22:58;6.47;;;1.90;;
74528;SDS011;63009;52.584;5.932;2023-06-14T11:25:25;6.60;;;1.60;;
74528;SDS011;63009;52.584;5.932;2023-06-14T11:27:54;8.10;;;1.95;;
74528;SDS011;63009;52.584;5.932;2023-06-14T11:30:20;4.38;;;1.52;;
74528;SDS011;63009;52.584;5.932;2023-06-14T11:32:46;7.75;;;1.80;;
74528;SDS011;63009;52.584;5.932;2023-06-14T11:35:12;8.02;;;1.85;;
74528;SDS011;63009;52.584;5.932;2023-06-14T11:37:39;6.77;;;1.93;;
74528;SDS011;63009;52.584;5.932;2023-06-14T11:40:07;9.10;;;3.00;;
74528;SDS011;63009;52.584;5.932;2023-06-14T11:42:34;7.57;;;2.00;;
74528;SDS011;63009;52.584;5.932;2023-06-14T12:11:59;5.72;;;1.98;;
74528;SDS011;63009;52.584;5.932;2023-06-14T12:14:29;5.72;;;1.70;;
74528;SDS011;63009;52.584;5.932;2023-06-14T12:17:03;6.35;;;1.75;;
74528;SDS011;63009;52.584;5.932;2023-06-14T12:19:31;5.70;;;2.03;;
74528;SDS011;63009;52.584;5.932;2023-06-14T12:21:57;5.80;;;1.63;;
74528;SDS011;63009;52.584;5.932;2023-06-14T12:24:27;6.28;;;1.85;;
74528;SDS011;63009;52.584;5.932;2023-06-14T12:26:54;11.50;;;2.55;;
74528;SDS011;63009;52.584;5.932;2023-06-14T12:29:19;6.90;;;1.87;;
74528;SDS011;63009;52.584;5.932;2023-06-14T12:31:45;10.87;;;2.20;;
74528;SDS011;63009;52.584;5.932;2023-06-14T12:34:10;7.35;;;2.30;;
74528;SDS011;63009;52.584;5.932;2023-06-14T12:36:35;5.50;;;2.15;;
74528;SDS011;63009;52.584;5.932;2023-06-14T12:39:06;6.53;;;1.88;;
74528;SDS011;63009;52.584;5.932;2023-06-14T12:41:34;6.20;;;1.85;;
74528;SDS011;63009;52.584;5.932;2023-06-14T12:44:03;5.43;;;1.40;;
74528;SDS011;63009;52.584;5.932;2023-06-14T12:46:31;6.10;;;1.58;;
74528;SDS011;63009;52.584;5.932;2023-06-14T12:48:57;5.97;;;1.63;;
74528;SDS011;63009;52.584;5.932;2023-06-14T12:51:22;7.23;;;1.80;;
74528;SDS011;63009;52.584;5.932;2023-06-14T12:53:48;5.10;;;1.70;;
74528;SDS011;63009;52.584;5.932;2023-06-14T12:56:14;6.20;;;1.70;;
74528;SDS011;63009;52.584;5.932;2023-06-14T12:58:40;5.65;;;1.63;;
74528;SDS011;63009;52.584;5.932;2023-06-14T13:01:06;6.68;;;1.90;;
74528;SDS011;63009;52.584;5.932;2023-06-14T13:03:31;8.50;;;1.83;;
74528;SDS011;63009;52.584;5.932;2023-06-14T13:05:58;6.10;;;1.80;;
74528;SDS011;63009;52.584;5.932;2023-06-14T13:08:23;7.28;;;2.03;;
74528;SDS011;63009;52.584;5.932;2023-06-14T13:10:49;5.72;;;1.70;;
74528;SDS011;63009;52.584;5.932;2023-06-14T13:13:14;5.43;;;1.70;;
74528;SDS011;63009;52.584;5.932;2023-06-14T13:15:39;5.53;;;1.60;;
74528;SDS011;63009;52.584;5.932;2023-06-14T13:18:05;5.90;;;2.00;;
74528;SDS011;63009;52.584;5.932;2023-06-14T13:20:30;6.65;;;2.10;;
74528;SDS011;63009;52.584;5.932;2023-06-14T13:22:56;6.15;;;2.10;;
74528;SDS011;63009;52.584;5.932;2023-06-14T13:25:22;6.40;;;1.70;;
74528;SDS011;63009;52.584;5.932;2023-06-14T13:27:47;9.53;;;2.60;;
74528;SDS011;63009;52.584;5.932;2023-06-14T13:30:13;8.52;;;2.10;;
74528;SDS011;63009;52.584;5.932;2023-06-14T13:32:38;5.90;;;1.90;;
74528;SDS011;63009;52.584;5.932;2023-06-14T13:35:04;7.72;;;1.77;;
74528;SDS011;63009;52.584;5.932;2023-06-14T13:37:30;6.80;;;2.30;;
74528;SDS011;63009;52.584;5.932;2023-06-14T13:39:55;6.00;;;2.00;;
74528;SDS011;63009;52.584;5.932;2023-06-14T13:42:20;7.50;;;2.10;;
74528;SDS011;63009;52.584;5.932;2023-06-14T13:44:45;6.40;;;1.73;;
74528;SDS011;63009;52.584;5.932;2023-06-14T13:47:11;6.83;;;1.87;;
74528;SDS011;63009;52.584;5.932;2023-06-14T13:49:37;6.90;;;1.90;;
74528;SDS011;63009;52.584;5.932;2023-06-14T13:52:02;7.47;;;2.00;;
74528;SDS011;63009;52.584;5.932;2023-06-14T13:54:28;6.57;;;1.70;;
74528;SDS011;63009;52.584;5.932;2023-06-14T13:56:53;5.20;;;1.88;;
74528;SDS011;63009;52.584;5.932;2023-06-14T13:59:19;10.55;;;2.15;;
74528;SDS011;63009;52.584;5.932;2023-06-14T14:01:45;7.50;;;2.15;;
74528;SDS011;63009;52.584;5.932;2023-06-14T14:04:10;5.40;;;1.83;;
74528;SDS011;63009;52.584;5.932;2023-06-14T14:06:36;9.38;;;2.08;;
74528;SDS011;63009;52.584;5.932;2023-06-14T14:09:01;6.75;;;1.90;;
74528;SDS011;63009;52.584;5.932;2023-06-14T14:11:27;5.90;;;1.80;;
74528;SDS011;63009;52.584;5.932;2023-06-14T14:13:53;7.00;;;1.88;;
74528;SDS011;63009;52.584;5.932;2023-06-14T14:16:18;7.25;;;1.95;;
74528;SDS011;63009;52.584;5.932;2023-06-14T14:18:45;5.47;;;1.60;;
74528;SDS011;63009;52.584;5.932;2023-06-14T14:21:10;8.68;;;1.90;;
74528;SDS011;63009;52.584;5.932;2023-06-14T14:23:36;6.83;;;2.30;;
74528;SDS011;63009;52.584;5.932;2023-06-14T14:26:01;7.20;;;2.03;;
74528;SDS011;63009;52.584;5.932;2023-06-14T14:28:29;6.43;;;1.90;;
74528;SDS011;63009;52.584;5.932;2023-06-14T14:30:54;6.97;;;2.20;;
74528;SDS011;63009;52.584;5.932;2023-06-14T14:33:20;6.20;;;1.70;;
74528;SDS011;63009;52.584;5.932;2023-06-14T14:35:45;5.93;;;1.85;;
74528;SDS011;63009;52.584;5.932;2023-06-14T14:38:11;6.13;;;2.13;;
74528;SDS011;63009;52.584;5.932;2023-06-14T14:40:36;7.63;;;2.25;;
74528;SDS011;63009;52.584;5.932;2023-06-14T14:43:02;7.10;;;2.00;;
74528;SDS011;63009;52.584;5.932;2023-06-14T14:45:27;6.47;;;1.77;;
74528;SDS011;63009;52.584;5.932;2023-06-14T14:47:52;8.73;;;2.30;;
74528;SDS011;63009;52.584;5.932;2023-06-14T14:50:18;6.53;;;2.03;;
74528;SDS011;63009;52.584;5.932;2023-06-14T14:52:43;8.82;;;1.90;;
74528;SDS011;63009;52.584;5.932;2023-06-14T14:55:08;6.63;;;1.80;;
74528;SDS011;63009;52.584;5.932;2023-06-14T14:57:33;5.77;;;1.70;;
74528;SDS011;63009;52.584;5.932;2023-06-14T15:00:01;7.30;;;1.98;;
74528;SDS011;63009;52.584;5.932;2023-06-14T15:02:27;8.75;;;1.90;;
74528;SDS011;63009;52.584;5.932;2023-06-14T15:04:52;5.03;;;1.63;;
74528;SDS011;63009;52.584;5.932;2023-06-14T15:07:19;5.47;;;2.10;;
74528;SDS011;63009;52.584;5.932;2023-06-14T15:09:44;6.30;;;1.90;;
74528;SDS011;63009;52.584;5.932;2023-06-14T15:12:10;6.00;;;1.97;;
74528;SDS011;63009;52.584;5.932;2023-06-14T15:14:35;5.88;;;1.90;;
74528;SDS011;63009;52.584;5.932;2023-06-14T15:17:01;5.67;;;2.00;;
74528;SDS011;63009;52.584;5.932;2023-06-14T15:19:27;5.03;;;1.67;;
74528;SDS011;63009;52.584;5.932;2023-06-14T15:21:53;6.57;;;2.00;;
74528;SDS011;63009;52.584;5.932;2023-06-14T15:24:18;7.33;;;2.10;;